Time;durP1;ratioP1;P1;durP2;ratioP2;P2;SDS_P1;SDS_P2;PMS_P1;PMS_P2;Temp;Humidity;BMP_temperature;BMP_pressure;BME280_temperature;BME280_humidity;BME280_pressure;Samples;Min_cycle;Max_cycle;Signal;HPM_P1;HPM_P2
2024/01/06 00:00:26;;;;;;;;;;;;;;;-10.48;69.67;96428.88;6246904;28;20008;-67
2024/01/06 00:03:32;;;;;;;;;;;;;;;-10.50;69.41;96425.47;6247575;28;19921;-67
2024/01/06 00:06:37;;;;;;;;;;;;;;;-10.48;69.60;96434.81;6247756;28;19921;-68
2024/01/06 00:09:41;;;;;;;;;;;;;;;-10.51;69.48;96414.44;6247276;28;19921;-67
2024/01/06 00:12:43;;;;;;;;;;;;;;;-10.62;69.47;96428.75;6246542;28;19920;-67
2024/01/06 00:15:44;;;;;;;;;;;;;;;-10.63;69.37;96419.44;6246209;28;19998;-67
2024/01/06 00:18:47;;;;;;;;;;;;;;;-10.67;69.53;96422.75;6246367;28;19921;-66
2024/01/06 00:21:48;;;;;;;;;;;;;;;-10.66;69.54;96424.47;6246526;28;19974;-67
2024/01/06 00:24:51;;;;;;;;;;;;;;;-10.69;69.39;96429.53;6229853;28;20385;-67
2024/01/06 00:27:54;;;;;;;;;;;;;;;-10.68;69.48;96436.31;6245131;28;19921;-67
2024/01/06 00:30:55;;;;;;;;;;;;;;;-10.69;69.60;96434.63;6246924;28;20324;-67
2024/01/06 00:33:59;;;;;;;;;;;;;;;-10.68;69.60;96432.09;6246661;28;19925;-67
2024/01/06 00:37:02;;;;;;;;;;;;;;;-10.68;69.31;96436.31;6246800;28;19921;-68
2024/01/06 00:40:06;;;;;;;;;;;;;;;-10.72;69.64;96443.06;6229307;28;19960;-67
2024/01/06 00:43:07;;;;;;;;;;;;;;;-10.76;69.36;96446.41;6229174;28;20416;-66
2024/01/06 00:46:10;;;;;;;;;;;;;;;-10.73;69.54;96453.19;6246510;28;19920;-68
2024/01/06 00:49:11;;;;;;;;;;;;;;;-10.79;69.38;96451.44;6245982;28;19931;-67
2024/01/06 00:52:15;;;;;;;;;;;;;;;-10.81;69.35;96460.75;6263839;28;19921;-67
2024/01/06 00:55:21;;;;;;;;;;;;;;;-10.74;69.64;96457.44;6271078;28;19925;-66
2024/01/06 00:58:25;;;;;;;;;;;;;;;-10.77;69.33;96459.09;6270948;28;19920;-67
2024/01/06 01:01:29;;;;;;;;;;;;;;;-10.79;69.58;96460.75;6253124;28;20247;-67
2024/01/06 01:04:30;;;;;;;;;;;;;;;-10.79;69.46;96458.22;6270006;28;19920;-67
2024/01/06 01:07:33;;;;;;;;;;;;;;;-10.74;69.49;96466.75;6271089;28;19921;-68
2024/01/06 01:10:36;;;;;;;;;;;;;;;-10.71;69.49;96460.00;6270165;28;19921;-67
2024/01/06 01:13:39;;;;;;;;;;;;;;;-10.66;69.33;96460.06;6270602;28;19920;-67
2024/01/06 01:16:45;;;;;;;;;;;;;;;-10.68;69.31;96461.75;6253094;28;20382;-67
2024/01/06 01:19:51;;;;;;;;;;;;;;;-10.64;69.65;96466.03;6270671;28;20394;-66
2024/01/06 01:22:52;;;;;;;;;;;;;;;-10.69;69.35;96465.97;6269978;28;19928;-68
2024/01/06 01:25:57;;;;;;;;;;;;;;;-10.67;69.38;96463.44;6270256;28;19962;-67
2024/01/06 01:29:00;;;;;;;;;;;;;;;-10.64;69.26;96468.56;6270275;28;19979;-66
2024/01/06 01:32:04;;;;;;;;;;;;;;;-10.66;69.21;96473.63;6270216;28;19986;-68
2024/01/06 01:35:05;;;;;;;;;;;;;;;-10.64;69.28;96469.44;6252068;28;19921;-67
2024/01/06 01:38:07;;;;;;;;;;;;;;;-10.62;69.22;96471.97;6269403;28;19921;-67
2024/01/06 01:41:08;;;;;;;;;;;;;;;-10.60;69.32;96475.38;6269123;28;19943;-66
2024/01/06 01:44:09;;;;;;;;;;;;;;;-10.58;69.35;96478.81;6251274;28;20466;-68
2024/01/06 01:47:11;;;;;;;;;;;;;;;-10.56;69.45;96479.66;6251298;28;19978;-68
2024/01/06 01:50:14;;;;;;;;;;;;;;;-10.54;69.38;96484.78;6269646;28;20519;-67
2024/01/06 01:53:18;;;;;;;;;;;;;;;-10.52;69.21;96483.09;6258693;28;19921;-67
2024/01/06 01:56:19;;;;;;;;;;;;;;;-10.48;69.12;96485.69;6244229;28;19924;-68
2024/01/06 01:59:21;;;;;;;;;;;;;;;-10.45;69.17;96482.31;6244291;28;19921;-67
2024/01/06 02:02:25;;;;;;;;;;;;;;;-10.47;69.20;96489.09;6244912;28;19921;-67
2024/01/06 02:05:26;;;;;;;;;;;;;;;-10.44;69.13;96491.69;6243952;28;19928;-67
2024/01/06 02:08:27;;;;;;;;;;;;;;;-10.41;69.23;96490.00;6244249;28;19940;-66
2024/01/06 02:11:28;;;;;;;;;;;;;;;-10.35;69.05;96496.00;6226952;28;19925;-67
2024/01/06 02:14:34;;;;;;;;;;;;;;;-10.30;69.13;96499.41;6244618;28;19921;-68
2024/01/06 02:17:36;;;;;;;;;;;;;;;-10.27;69.01;96491.84;6244142;28;20341;-68
2024/01/06 02:20:37;;;;;;;;;;;;;;;-10.31;69.14;96495.19;6244426;28;19956;-68
2024/01/06 02:23:41;;;;;;;;;;;;;;;-10.28;69.25;96496.06;6226161;28;19943;-67
2024/01/06 02:26:47;;;;;;;;;;;;;;;-10.28;69.43;96502.84;6244509;28;20379;-67
2024/01/06 02:29:47;;;;;;;;;;;;;;;-10.25;68.93;96495.22;6243944;28;19921;-68
2024/01/06 02:32:48;;;;;;;;;;;;;;;-10.21;69.21;96504.59;6244318;28;19921;-67
2024/01/06 02:35:50;;;;;;;;;;;;;;;-10.19;69.13;96503.78;6243950;28;20306;-66
2024/01/06 02:38:54;;;;;;;;;;;;;;;-10.18;69.04;96510.56;6244603;28;20382;-68
2024/01/06 02:41:58;;;;;;;;;;;;;;;-10.19;68.94;96513.06;6244384;28;19925;-68
2024/01/06 02:45:02;;;;;;;;;;;;;;;-10.20;69.05;96521.56;6244261;28;20325;-67
2024/01/06 02:48:04;;;;;;;;;;;;;;;-10.20;69.22;96522.41;6244371;28;19992;-67
2024/01/06 02:51:07;;;;;;;;;;;;;;;-10.24;68.94;96515.59;6244867;28;19921;-67
2024/01/06 02:54:09;;;;;;;;;;;;;;;-10.23;69.36;96512.19;6248589;28;20402;-68
2024/01/06 02:57:13;;;;;;;;;;;;;;;-10.23;69.18;96514.75;6248344;28;20016;-68
2024/01/06 03:00:15;;;;;;;;;;;;;;;-10.25;69.31;96528.28;6248816;28;20409;-68
2024/01/06 03:03:18;;;;;;;;;;;;;;;-10.24;69.22;96532.56;6248871;28;19927;-67
2024/01/06 03:06:19;;;;;;;;;;;;;;;-10.23;69.34;96531.69;6248949;28;19921;-67
2024/01/06 03:09:25;;;;;;;;;;;;;;;-10.20;69.44;96531.72;6248480;28;20001;-67
2024/01/06 03:12:29;;;;;;;;;;;;;;;-10.16;69.14;96528.41;6248672;28;19920;-67
2024/01/06 03:15:30;;;;;;;;;;;;;;;-10.21;69.11;96530.03;6248147;28;19924;-68
2024/01/06 03:18:33;;;;;;;;;;;;;;;-10.24;69.36;96519.84;6248656;28;20302;-69
2024/01/06 03:21:37;;;;;;;;;;;;;;;-10.27;69.17;96528.31;6248528;28;19928;-67
2024/01/06 03:24:40;;;;;;;;;;;;;;;-10.29;69.50;96535.06;6248614;28;19925;-68
2024/01/06 03:27:41;;;;;;;;;;;;;;;-10.30;69.24;96540.13;6248291;28;19956;-67
2024/01/06 03:30:45;;;;;;;;;;;;;;;-10.30;69.19;96550.28;6230867;28;19920;-67
2024/01/06 03:33:46;;;;;;;;;;;;;;;-10.28;69.19;96554.56;6248148;28;19972;-68
2024/01/06 03:36:46;;;;;;;;;;;;;;;-10.25;69.12;96556.25;6247391;28;19921;-67
2024/01/06 03:39:47;;;;;;;;;;;;;;;-10.26;69.22;96559.66;6247578;28;19928;-68
2024/01/06 03:42:50;;;;;;;;;;;;;;;-10.30;69.18;96551.19;6248157;28;20306;-68
2024/01/06 03:45:51;;;;;;;;;;;;;;;-10.27;69.39;96570.72;6247087;28;20067;-68
2024/01/06 03:48:52;;;;;;;;;;;;;;;-10.25;69.29;96574.06;6246363;28;19954;-67
2024/01/06 03:51:53;;;;;;;;;;;;;;;-10.25;69.31;96579.16;6247805;28;20382;-67
2024/01/06 03:54:58;;;;;;;;;;;;;;;-10.27;69.17;96575.78;6247265;28;19924;-67
2024/01/06 03:58:01;;;;;;;;;;;;;;;-10.24;69.09;96570.72;6247617;28;19928;-68
2024/01/06 04:01:02;;;;;;;;;;;;;;;-10.28;69.09;96579.16;6213506;28;19917;-68
2024/01/06 04:04:05;;;;;;;;;;;;;;;-10.29;69.21;96580.00;6246107;28;19920;-66
2024/01/06 04:07:06;;;;;;;;;;;;;;;-10.26;69.15;96577.47;6247237;28;19927;-67
2024/01/06 04:10:10;;;;;;;;;;;;;;;-10.25;69.38;96584.25;6246881;28;19921;-68
2024/01/06 04:13:13;;;;;;;;;;;;;;;-10.22;69.23;96584.28;6247298;28;19932;-68
2024/01/06 04:16:14;;;;;;;;;;;;;;;-10.21;69.16;96583.47;6246455;28;19916;-67
2024/01/06 04:19:15;;;;;;;;;;;;;;;-10.20;69.23;96582.63;6246595;28;19967;-67
2024/01/06 04:22:16;;;;;;;;;;;;;;;-10.18;69.00;96584.34;6228733;28;19960;-67
2024/01/06 04:25:19;;;;;;;;;;;;;;;-10.18;69.07;96601.31;6246331;28;19921;-67
2024/01/06 04:28:20;;;;;;;;;;;;;;;-10.17;69.29;96603.00;6246252;28;20330;-66
2024/01/06 04:31:21;;;;;;;;;;;;;;;-10.15;69.06;96610.66;6245100;28;19943;-68
2024/01/06 04:34:22;;;;;;;;;;;;;;;-10.17;69.28;96613.19;6246033;28;20295;-67
2024/01/06 04:37:26;;;;;;;;;;;;;;;-10.14;69.12;96617.44;6246778;28;19921;-68
2024/01/06 04:40:27;;;;;;;;;;;;;;;-10.13;69.12;96616.59;6245667;28;19927;-68
2024/01/06 04:43:30;;;;;;;;;;;;;;;-10.14;69.07;96615.75;6246357;28;20317;-68
2024/01/06 04:46:31;;;;;;;;;;;;;;;-10.10;69.20;96617.50;6228075;28;19921;-67
2024/01/06 04:49:37;;;;;;;;;;;;;;;-10.04;69.22;96615.03;6246190;28;19921;-67
2024/01/06 04:52:43;;;;;;;;;;;;;;;-10.02;69.07;96618.47;6246370;28;20418;-68
2024/01/06 04:55:47;;;;;;;;;;;;;;;-9.98;69.21;96630.38;6245724;28;19921;-67
2024/01/06 04:58:50;;;;;;;;;;;;;;;-9.97;68.97;96626.97;6228899;28;20406;-67
2024/01/06 05:01:53;;;;;;;;;;;;;;;-9.95;68.91;96632.94;6227073;28;19924;-68
2024/01/06 05:04:53;;;;;;;;;;;;;;;-9.91;69.12;96633.81;6245601;28;19921;-67
2024/01/06 05:07:54;;;;;;;;;;;;;;;-9.83;69.03;96641.56;6245588;28;19909;-67
2024/01/06 05:10:59;;;;;;;;;;;;;;;-9.75;68.93;96645.03;6246075;28;20015;-67
2024/01/06 05:14:00;;;;;;;;;;;;;;;-9.69;68.71;96652.72;6244892;28;20019;-67
2024/01/06 05:17:03;;;;;;;;;;;;;;;-9.65;69.15;96654.50;6245432;28;19921;-68
2024/01/06 05:20:04;;;;;;;;;;;;;;;-9.62;68.83;96656.19;6245246;28;19944;-68
2024/01/06 05:23:08;;;;;;;;;;;;;;;-9.60;68.94;96657.91;6244552;28;19996;-67
2024/01/06 05:26:13;;;;;;;;;;;;;;;-9.59;69.11;96662.19;6245209;28;19921;-67
2024/01/06 05:29:17;;;;;;;;;;;;;;;-9.61;68.74;96665.56;6244907;28;19925;-67
2024/01/06 05:32:20;;;;;;;;;;;;;;;-9.62;68.68;96664.69;6227722;28;19921;-67
2024/01/06 05:35:24;;;;;;;;;;;;;;;-9.59;68.77;96666.44;6244650;28;19925;-67
2024/01/06 05:38:26;;;;;;;;;;;;;;;-9.58;68.67;96666.44;6244784;28;19920;-67
2024/01/06 05:41:27;;;;;;;;;;;;;;;-9.53;68.53;96672.44;6227314;28;19921;-68
2024/01/06 05:44:30;;;;;;;;;;;;;;;-9.46;68.63;96669.94;6244122;28;19921;-67
2024/01/06 05:47:33;;;;;;;;;;;;;;;-9.44;68.37;96679.31;6244412;28;19921;-67
2024/01/06 05:50:35;;;;;;;;;;;;;;;-9.42;68.57;96684.44;6244387;28;19960;-66
2024/01/06 05:53:36;;;;;;;;;;;;;;;-9.32;68.81;96678.56;6227244;28;20008;-68
2024/01/06 05:56:37;;;;;;;;;;;;;;;-9.33;68.39;96677.72;6252462;28;19921;-68
2024/01/06 05:59:39;;;;;;;;;;;;;;;-9.31;68.61;96690.50;6269109;28;19924;-68
2024/01/06 06:02:45;;;;;;;;;;;;;;;-9.30;66.88;96687.94;6269642;28;20010;-67
2024/01/06 06:05:48;;;;;;;;;;;;;;;-9.38;67.64;96688.69;6268360;28;19929;-68
2024/01/06 06:08:51;;;;;;;;;;;;;;;-9.41;68.11;96691.22;6269540;28;19920;-68
2024/01/06 06:11:53;;;;;;;;;;;;;;;-9.49;68.11;96681.78;6267559;28;20294;-67
2024/01/06 06:14:55;;;;;;;;;;;;;;;-9.46;68.40;96697.97;6268672;28;19921;-67
2024/01/06 06:17:59;;;;;;;;;;;;;;;-9.43;68.17;96705.63;6267972;28;19931;-67
2024/01/06 06:21:00;;;;;;;;;;;;;;;-9.39;68.45;96702.28;6268847;28;20034;-68
2024/01/06 06:24:05;;;;;;;;;;;;;;;-9.37;68.20;96698.03;6269296;28;20434;-69
2024/01/06 06:27:08;;;;;;;;;;;;;;;-9.34;68.25;96700.63;6268210;28;20019;-66
2024/01/06 06:30:12;;;;;;;;;;;;;;;-9.29;68.05;96698.97;6269159;28;19920;-68
2024/01/06 06:33:13;;;;;;;;;;;;;;;-9.30;68.27;96707.47;6268749;28;20306;-67
2024/01/06 06:36:14;;;;;;;;;;;;;;;-9.27;67.99;96708.34;6268850;28;20474;-67
2024/01/06 06:39:15;;;;;;;;;;;;;;;-9.22;68.16;96708.41;6268667;28;20350;-66
2024/01/06 06:42:16;;;;;;;;;;;;;;;-9.14;68.06;96714.44;6267883;28;19921;-67
2024/01/06 06:45:23;;;;;;;;;;;;;;;-9.09;68.05;96712.75;6269183;28;19928;-67
2024/01/06 06:48:23;;;;;;;;;;;;;;;-9.07;67.94;96705.97;6268683;28;19920;-68
2024/01/06 06:51:26;;;;;;;;;;;;;;;-9.06;68.07;96707.72;6268323;28;20409;-68
2024/01/06 06:54:28;;;;;;;;;;;;;;;-8.95;67.92;96714.56;6288897;28;20498;-68
2024/01/06 06:57:34;;;;;;;;;;;;;;;-8.82;67.52;96706.19;6269157;28;19924;-67
2024/01/06 07:00:35;;;;;;;;;;;;;;;-8.67;67.71;96721.59;6268647;28;20326;-67
2024/01/06 07:03:37;;;;;;;;;;;;;;;-8.66;67.24;96718.25;6268587;28;20517;-68
2024/01/06 07:06:43;;;;;;;;;;;;;;;-8.72;66.99;96718.16;6268469;28;19920;-67
2024/01/06 07:09:46;;;;;;;;;;;;;;;-8.68;67.35;96719.91;6267352;28;19928;-67
2024/01/06 07:12:48;;;;;;;;;;;;;;;-8.71;66.70;96719.88;6267982;28;19921;-67
2024/01/06 07:15:51;;;;;;;;;;;;;;;-8.73;66.97;96713.91;6268486;28;19917;-67
2024/01/06 07:18:52;;;;;;;;;;;;;;;-8.60;67.11;96713.19;6268245;28;19920;-67
2024/01/06 07:21:55;;;;;;;;;;;;;;;-8.41;67.61;96715.84;6267832;28;19916;-67
2024/01/06 07:24:58;;;;;;;;;;;;;;;-8.33;67.31;96716.72;6267562;28;19921;-68
2024/01/06 07:28:03;;;;;;;;;;;;;;;-8.18;67.23;96727.03;6268239;28;19921;-68
2024/01/06 07:31:04;;;;;;;;;;;;;;;-8.06;67.11;96725.41;6267866;28;20412;-68
2024/01/06 07:34:10;;;;;;;;;;;;;;;-8.13;66.86;96725.34;6268430;28;19921;-68
2024/01/06 07:37:11;;;;;;;;;;;;;;;-8.10;67.11;96733.88;6268526;28;20297;-68
2024/01/06 07:40:16;;;;;;;;;;;;;;;-8.01;66.83;96728.81;6272616;28;19920;-68
2024/01/06 07:43:19;;;;;;;;;;;;;;;-7.83;67.09;96728.91;6272542;28;20386;-69
2024/01/06 07:46:23;;;;;;;;;;;;;;;-7.68;67.03;96723.84;6272368;28;20313;-67
2024/01/06 07:49:24;;;;;;;;;;;;;;;-7.60;66.67;96720.50;6271629;28;19929;-68
2024/01/06 07:52:30;;;;;;;;;;;;;;;-7.61;66.56;96723.88;6268120;28;20016;-69
2024/01/06 07:55:31;;;;;;;;;;;;;;;-7.63;66.00;96712.81;6229603;28;20014;-68
2024/01/06 07:58:32;;;;;;;;;;;;;;;-7.63;66.03;96718.78;6247087;28;19921;-67
2024/01/06 08:01:33;;;;;;;;;;;;;;;-7.58;65.98;96716.25;6247580;28;19917;-68
2024/01/06 08:04:37;;;;;;;;;;;;;;;-7.69;66.01;96711.94;6247458;28;19920;-67
2024/01/06 08:07:39;;;;;;;;;;;;;;;-7.75;66.22;96701.69;6247456;28;20007;-68
2024/01/06 08:10:40;;;;;;;;;;;;;;;-7.80;66.34;96698.28;6262503;28;19921;-68
2024/01/06 08:13:46;;;;;;;;;;;;;;;-7.92;66.41;96718.66;6247039;28;19921;-68
2024/01/06 08:16:50;;;;;;;;;;;;;;;-8.07;66.68;96708.34;6247273;28;19920;-68
2024/01/06 08:19:55;;;;;;;;;;;;;;;-8.05;67.24;96704.13;6247059;28;19921;-67
2024/01/06 08:22:56;;;;;;;;;;;;;;;-8.03;66.93;96710.94;6245960;28;19921;-67
2024/01/06 08:26:00;;;;;;;;;;;;;;;-7.93;66.38;96711.81;6261945;28;20011;-68
2024/01/06 08:29:02;;;;;;;;;;;;;;;-7.79;66.42;96715.28;6246959;28;19928;-69
2024/01/06 08:32:03;;;;;;;;;;;;;;;-7.64;65.94;96713.63;6247256;28;20382;-67
2024/01/06 08:35:06;;;;;;;;;;;;;;;-7.71;66.30;96702.56;6246722;28;19921;-68
2024/01/06 08:38:08;;;;;;;;;;;;;;;-7.61;66.24;96708.53;6246586;28;20768;-68
2024/01/06 08:41:09;;;;;;;;;;;;;;;-7.59;65.90;96706.84;6228880;28;20063;-67
2024/01/06 08:44:12;;;;;;;;;;;;;;;-7.57;66.12;96705.16;6246482;28;19921;-69
2024/01/06 08:47:13;;;;;;;;;;;;;;;-7.53;66.20;96702.63;6246454;28;19927;-67
2024/01/06 08:50:14;;;;;;;;;;;;;;;-7.54;65.84;96705.16;6245560;28;19949;-68
2024/01/06 08:53:20;;;;;;;;;;;;;;;-7.57;65.77;96705.16;6246029;28;19921;-68
2024/01/06 08:56:23;;;;;;;;;;;;;;;-7.54;66.48;96700.06;6245900;28;19928;-69
2024/01/06 08:59:27;;;;;;;;;;;;;;;-7.47;65.93;96701.81;6245994;28;19921;-68
2024/01/06 09:02:28;;;;;;;;;;;;;;;-7.45;65.96;96694.97;6244902;28;19928;-68
2024/01/06 09:05:30;;;;;;;;;;;;;;;-7.40;66.12;96688.16;6227654;28;20282;-67
2024/01/06 09:08:35;;;;;;;;;;;;;;;-7.37;65.74;96700.97;6246097;28;20010;-67
2024/01/06 09:11:36;;;;;;;;;;;;;;;-7.52;65.53;96709.44;6245232;28;20036;-69
2024/01/06 09:14:40;;;;;;;;;;;;;;;-7.62;65.72;96699.19;6245142;28;19921;-67
2024/01/06 09:17:41;;;;;;;;;;;;;;;-7.49;65.99;96695.81;6245362;28;20315;-66
2024/01/06 09:20:43;;;;;;;;;;;;;;;-7.37;66.06;96690.72;6245319;28;19927;-67
2024/01/06 09:23:48;;;;;;;;;;;;;;;-7.39;65.55;96694.97;6245754;28;20405;-67
2024/01/06 09:26:52;;;;;;;;;;;;;;;-7.65;65.61;96691.50;6245509;28;19928;-67
2024/01/06 09:29:55;;;;;;;;;;;;;;;-7.79;66.22;96697.41;6227360;28;19928;-67
2024/01/06 09:32:58;;;;;;;;;;;;;;;-7.83;65.99;96693.16;6244795;28;19925;-68
2024/01/06 09:36:00;;;;;;;;;;;;;;;-7.80;66.50;96697.41;6244834;28;20339;-68
2024/01/06 09:39:01;;;;;;;;;;;;;;;-7.97;63.69;96702.47;6245039;28;20026;-69
2024/01/06 09:42:02;;;;;;;;;;;;;;;-7.95;65.08;96700.78;6244720;28;20391;-68
2024/01/06 09:45:04;;;;;;;;;;;;;;;-7.83;65.00;96693.16;6244120;28;20260;-68
2024/01/06 09:48:10;;;;;;;;;;;;;;;-7.64;65.43;96693.19;6227315;28;19928;-67
2024/01/06 09:51:13;;;;;;;;;;;;;;;-7.57;65.43;96700.06;6245087;28;19932;-67
2024/01/06 09:54:19;;;;;;;;;;;;;;;-7.84;64.93;96701.69;6244808;28;19920;-68
2024/01/06 09:57:23;;;;;;;;;;;;;;;-8.04;65.04;96698.16;6244598;28;20510;-68
2024/01/06 10:00:27;;;;;;;;;;;;;;;-8.04;66.14;96706.66;6243690;28;20685;-69
2024/01/06 10:03:27;;;;;;;;;;;;;;;-7.86;66.52;96707.63;6244297;28;19943;-69
2024/01/06 10:06:31;;;;;;;;;;;;;;;-7.80;65.53;96708.50;6244792;28;19920;-67
2024/01/06 10:09:36;;;;;;;;;;;;;;;-7.87;65.63;96714.41;6244474;28;20390;-68
2024/01/06 10:12:40;;;;;;;;;;;;;;;-8.26;63.74;96713.38;6244206;28;20299;-67
2024/01/06 10:15:41;;;;;;;;;;;;;;;-8.73;63.74;96708.81;6244045;28;19921;-67
2024/01/06 10:18:43;;;;;;;;;;;;;;;-8.82;65.03;96718.94;6243963;28;19917;-67
2024/01/06 10:21:47;;;;;;;;;;;;;;;-8.66;65.77;96718.25;6227407;28;20322;-67
2024/01/06 10:24:50;;;;;;;;;;;;;;;-8.43;66.18;96709.91;6244345;28;19921;-67
2024/01/06 10:27:54;;;;;;;;;;;;;;;-8.31;66.01;96698.88;6225880;28;19943;-67
2024/01/06 10:30:55;;;;;;;;;;;;;;;-8.25;65.44;96704.84;6244405;28;19928;-66
2024/01/06 10:34:00;;;;;;;;;;;;;;;-8.21;66.25;96701.50;6243712;28;19997;-68
2024/01/06 10:37:01;;;;;;;;;;;;;;;-8.16;65.79;96710.00;6226232;28;19920;-67
2024/01/06 10:40:12;;;;;;;;;;;;;;;-8.17;65.77;96718.53;6244281;28;19928;-67
2024/01/06 10:43:16;;;;;;;;;;;;;;;-8.45;65.64;96726.88;6243814;28;19925;-68
2024/01/06 10:46:22;;;;;;;;;;;;;;;-8.70;65.36;96731.78;6243603;28;20541;-67
2024/01/06 10:49:26;;;;;;;;;;;;;;;-8.85;66.12;96732.53;6243976;28;20554;-67
2024/01/06 10:52:28;;;;;;;;;;;;;;;-8.93;66.30;96735.84;6248406;28;19927;-68
2024/01/06 10:55:29;;;;;;;;;;;;;;;-9.01;66.16;96734.91;6268845;28;20267;-67
2024/01/06 10:58:33;;;;;;;;;;;;;;;-9.22;66.65;96735.59;6268749;28;19921;-67
2024/01/06 11:01:35;;;;;;;;;;;;;;;-9.41;66.58;96740.47;6268399;28;20302;-68
2024/01/06 11:04:41;;;;;;;;;;;;;;;-9.53;66.77;96736.09;6268530;28;19933;-68
2024/01/06 11:07:47;;;;;;;;;;;;;;;-9.60;67.01;96734.31;6269171;28;20015;-68
2024/01/06 11:10:50;;;;;;;;;;;;;;;-9.69;67.25;96739.31;6268444;28;19920;-67
2024/01/06 11:14:14;;;;;;;;;;;;;;;-9.75;66.95;96734.16;6271672;28;19921;-68
2024/01/06 11:17:35;;;;;;;;;;;;;;;-9.78;67.38;96749.38;6272970;28;19920;-68
2024/01/06 11:20:38;;;;;;;;;;;;;;;-9.82;67.20;96752.72;6255259;28;19927;-68
2024/01/06 11:23:40;;;;;;;;;;;;;;;-9.85;67.21;96755.22;6273327;28;20314;-68
2024/01/06 11:26:55;;;;;;;;;;;;;;;-10.07;66.52;96760.06;6273229;28;20390;-69
2024/01/06 11:29:57;;;;;;;;;;;;;;;-10.12;67.16;96754.03;6272871;28;19925;-68
2024/01/06 11:33:00;;;;;;;;;;;;;;;-10.13;67.36;96752.34;6272201;28;20308;-68
2024/01/06 11:36:01;;;;;;;;;;;;;;;-10.14;67.23;96753.16;6272994;28;20279;-67
2024/01/06 11:39:02;;;;;;;;;;;;;;;-10.18;67.13;96743.78;6272759;28;19921;-67
2024/01/06 11:42:04;;;;;;;;;;;;;;;-10.14;67.34;96745.53;6272195;28;19951;-67
2024/01/06 11:45:08;;;;;;;;;;;;;;;-10.09;67.50;96754.06;6272760;28;19920;-68
2024/01/06 11:48:14;;;;;;;;;;;;;;;-10.07;67.53;96747.31;6272612;28;19920;-67
2024/01/06 11:51:15;;;;;;;;;;;;;;;-10.06;67.42;96749.03;6271937;28;20404;-67
2024/01/06 11:54:21;;;;;;;;;;;;;;;-10.07;67.55;96754.13;6252865;28;20232;-67
2024/01/06 11:57:22;;;;;;;;;;;;;;;-10.12;67.57;96754.03;6247389;28;19921;-69
2024/01/06 12:00:25;;;;;;;;;;;;;;;-10.17;67.34;96750.56;6247717;28;20398;-67
2024/01/06 12:03:30;;;;;;;;;;;;;;;-10.21;67.30;96753.91;6248053;28;19916;-66
2024/01/06 12:06:35;;;;;;;;;;;;;;;-10.32;66.74;96763.13;6246527;28;19921;-68
2024/01/06 12:09:36;;;;;;;;;;;;;;;-10.47;67.02;96756.97;6247380;28;20012;-67
2024/01/06 12:12:39;;;;;;;;;;;;;;;-10.48;67.23;96760.34;6246759;28;19928;-67
2024/01/06 12:15:45;;;;;;;;;;;;;;;-10.49;67.43;96758.63;6247219;28;20286;-68
2024/01/06 12:18:46;;;;;;;;;;;;;;;-10.46;67.50;96760.38;6246913;28;20414;-67
2024/01/06 12:21:51;;;;;;;;;;;;;;;-10.46;67.53;96757.81;6247084;28;20015;-68
2024/01/06 12:24:55;;;;;;;;;;;;;;;-10.48;67.51;96765.41;6245671;28;19940;-68
2024/01/06 12:27:56;;;;;;;;;;;;;;;-10.42;67.72;96760.41;6246854;28;19925;-67
2024/01/06 12:30:59;;;;;;;;;;;;;;;-10.40;67.73;96776.56;6246710;28;19920;-68
2024/01/06 12:34:00;;;;;;;;;;;;;;;-10.47;67.33;96777.31;6246178;28;19928;-68
2024/01/06 12:37:02;;;;;;;;;;;;;;;-10.46;67.60;96773.94;6246053;28;19922;-68
2024/01/06 12:40:03;;;;;;;;;;;;;;;-10.47;67.60;96782.41;6246196;28;19921;-68
2024/01/06 12:43:07;;;;;;;;;;;;;;;-10.45;67.75;96780.72;6245648;28;19928;-68
2024/01/06 12:46:07;;;;;;;;;;;;;;;-10.43;67.65;96784.16;6246146;28;19921;-68
2024/01/06 12:49:11;;;;;;;;;;;;;;;-10.42;67.61;96785.84;6246197;28;19921;-68
2024/01/06 12:52:13;;;;;;;;;;;;;;;-10.42;67.74;96785.84;6245587;28;20378;-70
2024/01/06 12:55:15;;;;;;;;;;;;;;;-10.41;67.49;96784.19;6246128;28;20377;-67
2024/01/06 12:58:16;;;;;;;;;;;;;;;-10.49;67.71;96781.50;6245672;28;19920;-67
2024/01/06 13:01:21;;;;;;;;;;;;;;;-10.52;67.88;96775.53;6246084;28;19921;-68
2024/01/06 13:04:24;;;;;;;;;;;;;;;-10.49;67.86;96778.97;6245992;28;20231;-67
2024/01/06 13:07:29;;;;;;;;;;;;;;;-10.51;67.63;96795.03;6245831;28;19925;-67
2024/01/06 13:10:35;;;;;;;;;;;;;;;-10.57;67.80;96785.63;6245805;28;19928;-68
2024/01/06 13:13:39;;;;;;;;;;;;;;;-10.65;67.30;96797.34;6246147;28;19921;-67
2024/01/06 13:16:42;;;;;;;;;;;;;;;-10.73;67.59;96788.75;6245026;28;20306;-68
2024/01/06 13:19:49;;;;;;;;;;;;;;;-10.79;67.82;96778.47;6245245;28;19921;-67
2024/01/06 13:22:52;;;;;;;;;;;;;;;-10.82;67.76;96784.38;6244902;28;19920;-68
2024/01/06 13:25:57;;;;;;;;;;;;;;;-10.91;67.07;96789.28;6245519;28;20027;-68
2024/01/06 13:29:03;;;;;;;;;;;;;;;-10.95;67.61;96780.78;6228270;28;19921;-68
2024/01/06 13:32:05;;;;;;;;;;;;;;;-10.94;68.09;96774.00;6245375;28;20058;-68
2024/01/06 13:35:11;;;;;;;;;;;;;;;-10.92;67.75;96775.75;6245032;28;20386;-67
2024/01/06 13:38:16;;;;;;;;;;;;;;;-10.85;67.95;96764.84;6227943;28;19921;-67
2024/01/06 13:41:19;;;;;;;;;;;;;;;-10.77;67.86;96759.03;6245210;28;20302;-67
2024/01/06 13:44:23;;;;;;;;;;;;;;;-10.71;67.89;96759.97;6245171;28;19956;-67
2024/01/06 13:47:27;;;;;;;;;;;;;;;-10.62;67.95;96761.81;6245239;28;19921;-68
2024/01/06 13:50:32;;;;;;;;;;;;;;;-10.54;67.82;96750.06;6245300;28;20378;-68
2024/01/06 13:53:33;;;;;;;;;;;;;;;-10.45;67.83;96745.13;6258195;28;20322;-67
2024/01/06 13:56:37;;;;;;;;;;;;;;;-10.37;67.82;96749.47;6269661;28;19963;-68
2024/01/06 13:59:42;;;;;;;;;;;;;;;-10.35;67.89;96755.44;6269447;28;20423;-67
2024/01/06 14:02:44;;;;;;;;;;;;;;;-10.40;67.67;96763.00;6269510;28;19921;-67
2024/01/06 14:05:45;;;;;;;;;;;;;;;-10.40;67.97;96760.44;6268561;28;19944;-68
2024/01/06 14:08:46;;;;;;;;;;;;;;;-10.42;67.74;96755.31;6269567;28;19920;-68
2024/01/06 14:11:49;;;;;;;;;;;;;;;-10.41;67.87;96766.38;6269228;28;19921;-68
2024/01/06 14:14:50;;;;;;;;;;;;;;;-10.43;67.93;96758.72;6269837;28;20424;-67
2024/01/06 14:17:52;;;;;;;;;;;;;;;-10.57;67.92;96770.38;6269159;28;19920;-68
2024/01/06 14:20:55;;;;;;;;;;;;;;;-10.65;67.62;96766.84;6268734;28;19921;-68
2024/01/06 14:23:59;;;;;;;;;;;;;;;-10.70;67.99;96769.34;6268128;28;19925;-68
2024/01/06 14:27:03;;;;;;;;;;;;;;;-10.72;67.90;96765.91;6268664;28;19928;-69
2024/01/06 14:30:07;;;;;;;;;;;;;;;-10.74;68.09;96751.44;6268578;28;20306;-68
2024/01/06 14:33:09;;;;;;;;;;;;;;;-10.78;68.00;96749.69;6268465;28;20039;-68
2024/01/06 14:36:10;;;;;;;;;;;;;;;-10.86;66.94;96750.44;6234447;28;19920;-67
2024/01/06 14:39:11;;;;;;;;;;;;;;;-10.83;67.54;96741.16;6268332;28;19928;-67
2024/01/06 14:42:12;;;;;;;;;;;;;;;-10.84;67.67;96727.56;6268203;28;20363;-67
2024/01/06 14:45:14;;;;;;;;;;;;;;;-10.74;67.86;96741.28;6269073;28;19928;-67
2024/01/06 14:48:15;;;;;;;;;;;;;;;-10.66;68.06;96757.53;6271724;28;19921;-68
2024/01/06 14:51:16;;;;;;;;;;;;;;;-10.66;67.68;96749.91;6272937;28;19920;-67
2024/01/06 14:54:16;;;;;;;;;;;;;;;-10.64;67.76;96746.53;6254272;28;19927;-67
2024/01/06 14:57:20;;;;;;;;;;;;;;;-10.63;67.70;96762.66;6248802;28;19921;-68
2024/01/06 15:00:21;;;;;;;;;;;;;;;-10.60;67.75;96749.97;6248343;28;19920;-70
2024/01/06 15:03:27;;;;;;;;;;;;;;;-10.59;67.81;96751.69;6231802;28;20006;-68
2024/01/06 15:06:34;;;;;;;;;;;;;;;-10.58;67.84;96750.88;6248806;28;19921;-69
2024/01/06 15:09:38;;;;;;;;;;;;;;;-10.57;67.83;96754.25;6248614;28;19920;-68
2024/01/06 15:12:42;;;;;;;;;;;;;;;-10.54;67.97;96759.38;6248093;28;20305;-68
2024/01/06 15:15:45;;;;;;;;;;;;;;;-10.51;67.84;96765.38;6248182;28;19921;-69
2024/01/06 15:18:49;;;;;;;;;;;;;;;-10.45;68.00;96770.53;6248177;28;20421;-68
2024/01/06 15:21:53;;;;;;;;;;;;;;;-10.57;67.87;96765.28;6248203;28;19944;-68
2024/01/06 15:25:00;;;;;;;;;;;;;;;-10.68;67.87;96761.72;6248555;28;19936;-69
2024/01/06 15:28:01;;;;;;;;;;;;;;;-10.76;67.69;96763.28;6247771;28;19952;-70
2024/01/06 15:31:03;;;;;;;;;;;;;;;-10.82;68.06;96758.09;6248380;28;19951;-69
2024/01/06 15:34:06;;;;;;;;;;;;;;;-10.82;68.03;96761.50;6248364;28;19921;-69
2024/01/06 15:37:08;;;;;;;;;;;;;;;-10.78;68.24;96739.50;6248034;28;19921;-68
2024/01/06 15:40:10;;;;;;;;;;;;;;;-10.72;68.29;96739.63;6248153;28;20028;-69
2024/01/06 15:43:11;;;;;;;;;;;;;;;-10.63;68.24;96734.69;6246777;28;20070;-67